createdAt,value
2018-05-26T00:01:51.190Z,14.58
2018-05-26T00:04:18.771Z,14.44
2018-05-26T00:06:46.350Z,14.37
2018-05-26T00:09:14.054Z,14.38
2018-05-26T00:11:41.639Z,14.40
2018-05-26T00:14:09.240Z,14.46
2018-05-26T00:16:36.822Z,14.43
2018-05-26T00:19:04.403Z,14.42
2018-05-26T00:21:32.030Z,14.39
2018-05-26T00:23:59.700Z,14.33
2018-05-26T00:26:27.284Z,14.24
2018-05-26T00:28:54.870Z,14.21
2018-05-26T00:31:22.450Z,14.19
2018-05-26T00:33:50.038Z,14.12
2018-05-26T00:36:17.631Z,14.10
2018-05-26T00:38:45.269Z,14.09
2018-05-26T00:41:12.854Z,14.12
2018-05-26T00:43:40.480Z,14.03
2018-05-26T00:46:08.070Z,14.04
2018-05-26T00:48:35.662Z,14.06
2018-05-26T00:51:03.255Z,14.05
2018-05-26T00:53:30.837Z,13.91
2018-05-26T00:55:58.417Z,13.87
2018-05-26T00:58:26.130Z,13.88
2018-05-26T01:00:53.705Z,13.92
2018-05-26T01:03:21.287Z,13.91
2018-05-26T01:05:48.870Z,13.92
2018-05-26T01:08:16.455Z,13.94
2018-05-26T01:10:44.046Z,13.98
2018-05-26T01:13:11.627Z,14.02
2018-05-26T01:15:39.319Z,13.98
2018-05-26T01:18:06.901Z,14.05
2018-05-26T01:20:34.477Z,13.95
2018-05-26T01:23:02.062Z,13.94
2018-05-26T01:25:29.646Z,13.82
2018-05-26T01:27:57.222Z,13.79
2018-05-26T01:30:24.815Z,13.82
2018-05-26T01:32:52.397Z,13.74
2018-05-26T01:35:19.981Z,13.68
2018-05-26T01:37:47.560Z,13.63
2018-05-26T01:40:15.145Z,13.54
2018-05-26T01:42:42.732Z,13.46
2018-05-26T01:45:10.330Z,13.37
2018-05-26T01:47:37.986Z,13.33
2018-05-26T01:50:05.650Z,13.38
2018-05-26T01:52:33.231Z,13.39
2018-05-26T01:55:00.818Z,13.48
2018-05-26T01:57:28.456Z,13.52
2018-05-26T01:59:56.043Z,13.43
2018-05-26T02:02:23.628Z,13.43
2018-05-26T02:04:51.211Z,13.39
2018-05-26T02:07:18.798Z,13.40
2018-05-26T02:09:46.920Z,13.46
2018-05-26T02:12:14.618Z,13.40
2018-05-26T02:14:42.200Z,13.38
2018-05-26T02:17:09.774Z,13.38
2018-05-26T02:19:37.353Z,13.35
2018-05-26T02:22:04.930Z,13.59
2018-05-26T02:24:32.504Z,13.44
2018-05-26T02:27:00.094Z,13.40
2018-05-26T02:29:27.714Z,13.28
2018-05-26T02:31:55.301Z,13.15
2018-05-26T02:34:22.899Z,13.08
2018-05-26T02:36:50.486Z,13.13
2018-05-26T02:39:18.117Z,13.20
2018-05-26T02:41:45.706Z,13.19
2018-05-26T02:44:13.316Z,12.97
2018-05-26T02:46:40.894Z,12.81
2018-05-26T02:49:08.478Z,12.71
2018-05-26T02:51:36.053Z,12.67
2018-05-26T02:54:03.668Z,12.84
2018-05-26T02:56:31.375Z,12.95
2018-05-26T02:58:58.962Z,12.75
2018-05-26T03:01:26.550Z,12.77
2018-05-26T03:03:53.578Z,12.88
2018-05-26T03:06:26.742Z,13.03
2018-05-26T03:09:00.063Z,12.87
2018-05-26T03:11:33.237Z,13.04
2018-05-26T03:14:06.413Z,12.92
2018-05-26T03:16:53.681Z,12.95
2018-05-26T03:19:21.352Z,12.91
2018-05-26T03:21:48.942Z,12.91
2018-05-26T03:24:16.573Z,13.06
2018-05-26T03:26:44.167Z,12.99
2018-05-26T03:29:11.803Z,12.98
2018-05-26T03:31:39.381Z,12.88
2018-05-26T03:34:06.968Z,12.77
2018-05-26T03:36:34.549Z,12.92
2018-05-26T03:39:02.134Z,12.89
2018-05-26T03:41:29.730Z,13.02
2018-05-26T03:43:57.313Z,12.92
2018-05-26T03:46:24.884Z,12.86
2018-05-26T03:48:52.470Z,12.80
2018-05-26T03:51:20.054Z,12.73
2018-05-26T03:53:47.640Z,12.67
2018-05-26T03:56:26.760Z,12.71
2018-05-26T03:59:06.082Z,12.86
2018-05-26T04:01:33.701Z,12.79
2018-05-26T04:04:01.280Z,12.86
2018-05-26T04:06:28.870Z,13.01
2018-05-26T04:08:56.494Z,13.07
2018-05-26T04:11:24.132Z,13.32
2018-05-26T04:13:51.749Z,13.44
2018-05-26T04:16:19.335Z,13.42
2018-05-26T04:18:46.954Z,13.53
2018-05-26T04:21:14.538Z,13.78
2018-05-26T04:23:42.167Z,13.76
2018-05-26T04:26:09.754Z,13.89
2018-05-26T04:28:37.336Z,13.99
2018-05-26T04:31:04.922Z,14.10
2018-05-26T04:33:32.507Z,14.16
2018-05-26T04:36:00.086Z,14.18
2018-05-26T04:38:27.678Z,14.24
2018-05-26T04:40:55.256Z,14.31
2018-05-26T04:43:22.837Z,14.40
2018-05-26T04:45:50.458Z,14.47
2018-05-26T04:48:18.106Z,14.58
2018-05-26T04:50:45.726Z,14.74
2018-05-26T04:53:13.307Z,14.76
2018-05-26T04:55:40.925Z,14.72
2018-05-26T04:58:08.506Z,14.82
2018-05-26T05:00:36.085Z,14.96
2018-05-26T05:03:03.673Z,15.01
2018-05-26T05:05:31.293Z,15.10
2018-05-26T05:07:58.933Z,15.05
2018-05-26T05:10:26.521Z,15.17
2018-05-26T05:12:54.151Z,15.11
2018-05-26T05:15:21.774Z,15.21
2018-05-26T05:17:49.354Z,15.29
2018-05-26T05:20:16.935Z,15.36
2018-05-26T05:22:44.516Z,15.41
2018-05-26T05:25:12.097Z,15.53
2018-05-26T05:27:39.686Z,15.57
2018-05-26T05:30:07.305Z,15.70
2018-05-26T05:32:34.956Z,15.81
2018-05-26T05:35:02.549Z,16.02
2018-05-26T05:37:30.182Z,16.03
2018-05-26T05:39:57.810Z,16.17
2018-05-26T05:42:25.622Z,16.33
2018-05-26T05:44:53.267Z,16.52
2018-05-26T05:47:20.890Z,16.62
2018-05-26T05:49:48.477Z,16.76
2018-05-26T05:52:16.254Z,16.94
2018-05-26T05:54:43.841Z,17.03
2018-05-26T05:57:11.418Z,17.04
2018-05-26T05:59:38.996Z,17.15
2018-05-26T06:02:06.581Z,17.31
2018-05-26T06:04:34.182Z,17.41
2018-05-26T06:07:01.767Z,17.67
2018-05-26T06:09:29.362Z,17.78
2018-05-26T06:11:56.947Z,17.98
2018-05-26T06:14:24.565Z,18.01
2018-05-26T06:16:52.157Z,18.01
2018-05-26T06:19:19.744Z,17.99
2018-05-26T06:21:47.321Z,18.09
2018-05-26T06:24:14.900Z,18.10
2018-05-26T06:26:42.485Z,18.17
2018-05-26T06:29:10.069Z,18.33
2018-05-26T06:31:37.688Z,18.43
2018-05-26T06:34:05.353Z,18.47
2018-05-26T06:36:32.980Z,18.61
2018-05-26T06:39:00.610Z,18.67
2018-05-26T06:41:28.254Z,18.79
2018-05-26T06:43:55.840Z,18.76
2018-05-26T06:46:23.413Z,18.89
2018-05-26T06:48:51.070Z,19.10
2018-05-26T06:51:19.517Z,19.23
2018-05-26T06:53:47.126Z,19.41
2018-05-26T06:56:14.707Z,19.68
2018-05-26T06:58:42.286Z,19.76
2018-05-26T07:01:09.861Z,19.97
2018-05-26T07:03:37.682Z,20.05
2018-05-26T07:06:05.316Z,20.02
2018-05-26T07:08:32.916Z,20.18
2018-05-26T07:11:00.533Z,20.24
2018-05-26T07:13:28.105Z,20.34
2018-05-26T07:15:55.778Z,20.45
2018-05-26T07:18:23.398Z,20.64
2018-05-26T07:20:50.983Z,20.74
2018-05-26T07:23:18.603Z,20.87
2018-05-26T07:25:46.323Z,20.90
2018-05-26T07:28:13.906Z,20.91
2018-05-26T07:30:41.490Z,20.82
2018-05-26T07:33:09.073Z,21.09
2018-05-26T07:35:36.659Z,21.23
2018-05-26T07:38:04.251Z,21.02
2018-05-26T07:40:31.834Z,21.02
2018-05-26T07:42:59.410Z,21.00
2018-05-26T07:45:26.999Z,21.17
2018-05-26T07:47:54.587Z,21.35
2018-05-26T07:50:22.166Z,21.40
2018-05-26T07:52:49.745Z,21.54
2018-05-26T07:55:17.360Z,21.54
2018-05-26T07:57:44.938Z,21.66
2018-05-26T08:00:12.608Z,21.58
2018-05-26T08:02:40.173Z,21.67
2018-05-26T08:05:07.789Z,21.80
2018-05-26T08:07:35.369Z,21.78
2018-05-26T08:10:02.987Z,21.83
2018-05-26T08:12:30.583Z,21.96
2018-05-26T08:14:58.202Z,21.94
2018-05-26T08:17:25.799Z,21.94
2018-05-26T08:19:53.384Z,22.19
2018-05-26T08:22:20.963Z,22.28
2018-05-26T08:24:48.538Z,22.34
2018-05-26T08:27:16.142Z,22.65
2018-05-26T08:29:43.732Z,22.76
2018-05-26T08:32:11.349Z,22.78
2018-05-26T08:34:39.010Z,22.70
2018-05-26T08:37:06.630Z,22.90
2018-05-26T08:39:34.242Z,23.03
2018-05-26T08:42:01.905Z,23.16
2018-05-26T08:44:29.490Z,23.25
2018-05-26T08:46:57.119Z,23.35
2018-05-26T08:49:24.720Z,23.35
2018-05-26T08:51:52.341Z,23.42
2018-05-26T08:54:19.922Z,23.50
2018-05-26T08:56:47.501Z,23.58
2018-05-26T08:59:15.129Z,23.80
2018-05-26T09:01:42.789Z,23.80
2018-05-26T09:04:10.374Z,23.76
2018-05-26T09:06:38.022Z,23.75
2018-05-26T09:09:05.633Z,23.91
2018-05-26T09:11:33.211Z,24.15
2018-05-26T09:14:00.797Z,24.28
2018-05-26T09:16:28.379Z,24.45
2018-05-26T09:18:55.959Z,24.42
2018-05-26T09:21:23.537Z,24.57
2018-05-26T09:23:51.134Z,24.55
2018-05-26T09:26:18.718Z,24.64
2018-05-26T09:28:46.302Z,24.72
2018-05-26T09:31:13.924Z,24.90
2018-05-26T09:33:41.497Z,24.84
2018-05-26T09:36:09.069Z,24.98
2018-05-26T09:38:36.646Z,25.08
2018-05-26T09:41:04.223Z,25.15
2018-05-26T09:43:31.797Z,25.32
2018-05-26T09:45:59.378Z,25.37
2018-05-26T09:48:26.963Z,25.49
2018-05-26T09:50:54.538Z,25.62
2018-05-26T09:53:22.116Z,25.72
2018-05-26T09:55:49.691Z,25.92
2018-05-26T09:58:17.306Z,25.93
2018-05-26T10:00:44.890Z,25.62
2018-05-26T10:03:12.471Z,25.75
2018-05-26T10:05:40.049Z,25.79
2018-05-26T10:08:07.629Z,26.14
2018-05-26T10:10:35.210Z,26.27
2018-05-26T10:13:02.827Z,26.13
2018-05-26T10:15:30.435Z,26.43
2018-05-26T10:17:58.100Z,26.50
2018-05-26T10:20:25.681Z,26.56
2018-05-26T10:22:53.317Z,26.82
2018-05-26T10:25:20.897Z,26.72
2018-05-26T10:27:48.533Z,26.42
2018-05-26T10:30:16.117Z,26.47
2018-05-26T10:32:43.800Z,26.69
2018-05-26T10:35:11.427Z,26.72
2018-05-26T10:37:39.086Z,27.05
2018-05-26T10:40:06.706Z,27.21
2018-05-26T10:42:34.289Z,27.17
2018-05-26T10:45:01.881Z,27.57
2018-05-26T10:47:29.471Z,27.54
2018-05-26T10:49:57.095Z,27.58
2018-05-26T10:52:24.665Z,27.88
2018-05-26T10:54:52.237Z,27.65
2018-05-26T10:57:19.885Z,27.01
2018-05-26T10:59:47.500Z,26.67
2018-05-26T11:02:15.083Z,26.39
2018-05-26T11:04:42.703Z,26.40
2018-05-26T11:07:10.281Z,26.55
2018-05-26T11:09:37.866Z,26.82
2018-05-26T11:12:05.554Z,27.07
2018-05-26T11:14:33.239Z,26.96
2018-05-26T11:17:01.763Z,27.12
2018-05-26T11:19:29.359Z,26.99
2018-05-26T11:21:56.987Z,27.21
2018-05-26T11:24:24.607Z,26.80
2018-05-26T11:26:52.177Z,26.90
2018-05-26T11:29:19.759Z,27.04
2018-05-26T11:31:47.338Z,26.77
2018-05-26T11:34:14.914Z,27.13
2018-05-26T11:36:42.498Z,27.38
2018-05-26T11:39:10.122Z,27.68
2018-05-26T11:41:37.701Z,28.05
2018-05-26T11:44:05.278Z,28.22
2018-05-26T11:46:32.853Z,28.48
2018-05-26T11:49:00.431Z,28.89
2018-05-26T11:51:28.011Z,29.10
2018-05-26T11:53:55.710Z,29.10
2018-05-26T11:56:23.289Z,29.22
2018-05-26T11:58:50.871Z,29.03
2018-05-26T12:01:18.456Z,28.41
2018-05-26T12:03:46.035Z,28.23
2018-05-26T12:06:13.627Z,28.34
2018-05-26T12:08:41.208Z,28.52
2018-05-26T12:11:08.876Z,28.83
2018-05-26T12:13:36.440Z,28.90
2018-05-26T12:16:05.830Z,29.23
2018-05-26T12:18:33.449Z,29.32
2018-05-26T12:21:01.033Z,29.38
2018-05-26T12:23:28.621Z,29.30
2018-05-26T12:25:56.288Z,28.84
2018-05-26T12:28:23.876Z,28.97
2018-05-26T12:30:51.493Z,29.21
2018-05-26T12:33:19.119Z,29.23
2018-05-26T12:35:46.698Z,29.34
2018-05-26T12:38:14.320Z,29.01
2018-05-26T12:40:42.516Z,28.92
2018-05-26T12:43:10.137Z,29.15
2018-05-26T12:45:37.774Z,29.69
2018-05-26T12:48:05.393Z,29.72
2018-05-26T12:50:32.974Z,29.56
2018-05-26T12:53:00.556Z,29.62
2018-05-26T12:55:28.142Z,29.74
2018-05-26T12:57:55.954Z,29.52
2018-05-26T13:00:23.536Z,29.63
2018-05-26T13:02:51.116Z,29.51
2018-05-26T13:05:18.697Z,29.74
2018-05-26T13:07:46.331Z,29.65
2018-05-26T13:10:13.912Z,29.54
2018-05-26T13:12:41.492Z,29.02
2018-05-26T13:15:09.069Z,29.25
2018-05-26T13:17:36.646Z,29.30
2018-05-26T13:20:04.283Z,29.55
2018-05-26T13:22:31.858Z,29.74
2018-05-26T13:24:59.441Z,29.58
2018-05-26T13:27:27.022Z,29.78
2018-05-26T13:29:54.609Z,29.89
2018-05-26T13:32:22.214Z,29.68
2018-05-26T13:34:50.073Z,29.68
2018-05-26T13:37:17.713Z,29.00
2018-05-26T13:39:45.298Z,28.98
2018-05-26T13:42:12.881Z,29.16
2018-05-26T13:44:40.471Z,29.23
2018-05-26T13:47:08.052Z,29.44
2018-05-26T13:49:36.496Z,29.33
2018-05-26T13:52:04.091Z,29.51
2018-05-26T13:54:31.825Z,29.47
2018-05-26T13:56:59.354Z,29.44
2018-05-26T13:59:26.995Z,29.67
2018-05-26T14:01:54.580Z,29.56
2018-05-26T14:04:22.203Z,30.12
2018-05-26T14:06:49.802Z,30.23
2018-05-26T14:09:17.388Z,30.34
2018-05-26T14:11:44.984Z,30.75
2018-05-26T14:14:12.567Z,30.85
2018-05-26T14:16:40.188Z,30.79
2018-05-26T14:19:08.508Z,30.90
2018-05-26T14:21:36.125Z,30.59
2018-05-26T14:24:03.709Z,30.70
2018-05-26T14:26:31.329Z,30.69
2018-05-26T14:28:58.914Z,30.22
2018-05-26T14:31:26.617Z,30.60
2018-05-26T14:33:54.195Z,30.52
2018-05-26T14:36:21.790Z,30.99
2018-05-26T14:38:50.017Z,31.03
2018-05-26T14:41:17.782Z,30.91
2018-05-26T14:43:45.357Z,32.14
2018-05-26T14:46:12.944Z,32.20
2018-05-26T14:48:40.580Z,33.06
2018-05-26T14:51:08.257Z,32.84
2018-05-26T14:53:35.996Z,33.29
2018-05-26T14:56:08.163Z,33.92
2018-05-26T14:58:35.790Z,34.08
2018-05-26T15:01:03.442Z,33.80
2018-05-26T15:03:31.065Z,33.95
2018-05-26T15:05:58.767Z,33.32
2018-05-26T15:08:26.433Z,33.05
2018-05-26T15:10:54.057Z,33.17
2018-05-26T15:13:21.697Z,33.30
2018-05-26T15:15:50.999Z,33.51
2018-05-26T15:18:18.629Z,32.74
2018-05-26T15:20:46.244Z,32.58
2018-05-26T15:23:13.822Z,32.77
2018-05-26T15:25:41.437Z,32.39
2018-05-26T15:28:09.047Z,31.83
2018-05-26T15:30:36.668Z,32.07
2018-05-26T15:33:04.290Z,31.63
2018-05-26T15:35:31.869Z,31.43
2018-05-26T15:37:59.488Z,31.75
2018-05-26T15:40:27.669Z,32.00
2018-05-26T15:42:55.282Z,31.69
2018-05-26T15:45:22.870Z,30.98
2018-05-26T15:47:50.484Z,29.82
2018-05-26T15:50:18.085Z,28.99
2018-05-26T15:52:45.807Z,28.52
2018-05-26T15:55:13.397Z,28.16
2018-05-26T15:57:40.975Z,27.82
2018-05-26T16:00:08.593Z,27.27
2018-05-26T16:02:36.174Z,27.00
2018-05-26T16:05:03.793Z,26.92
2018-05-26T16:07:31.369Z,26.79
2018-05-26T16:09:58.945Z,26.56
2018-05-26T16:12:26.630Z,26.37
2018-05-26T16:14:54.209Z,26.39
2018-05-26T16:17:21.786Z,26.26
2018-05-26T16:19:49.394Z,25.93
2018-05-26T16:22:16.979Z,25.92
2018-05-26T16:24:44.560Z,25.64
2018-05-26T16:27:12.133Z,25.57
2018-05-26T16:29:39.709Z,25.55
2018-05-26T16:32:07.290Z,25.47
2018-05-26T16:34:34.871Z,25.43
2018-05-26T16:37:02.520Z,25.37
2018-05-26T16:39:30.103Z,25.50
2018-05-26T16:41:57.737Z,25.42
2018-05-26T16:44:25.940Z,25.46
2018-05-26T16:46:53.570Z,25.28
2018-05-26T16:49:21.146Z,25.17
2018-05-26T16:51:48.793Z,25.16
2018-05-26T16:54:16.374Z,25.18
2018-05-26T16:56:43.945Z,25.14
2018-05-26T16:59:11.522Z,24.92
2018-05-26T17:01:39.153Z,24.89
2018-05-26T17:04:06.855Z,24.90
2018-05-26T17:06:34.429Z,24.71
2018-05-26T17:09:02.015Z,24.55
2018-05-26T17:11:29.601Z,24.57
2018-05-26T17:13:57.285Z,24.39
2018-05-26T17:16:24.906Z,24.46
2018-05-26T17:18:52.475Z,24.33
2018-05-26T17:21:20.101Z,24.21
2018-05-26T17:23:47.677Z,24.10
2018-05-26T17:26:15.253Z,24.16
2018-05-26T17:28:43.178Z,24.10
2018-05-26T17:31:10.895Z,24.06
2018-05-26T17:33:39.069Z,24.06
2018-05-26T17:36:06.802Z,23.84
2018-05-26T17:38:34.382Z,23.86
2018-05-26T17:41:01.989Z,23.74
2018-05-26T17:43:29.607Z,23.70
2018-05-26T17:45:57.489Z,23.58
2018-05-26T17:48:25.117Z,23.58
2018-05-26T17:50:52.721Z,23.51
2018-05-26T17:53:20.339Z,23.47
2018-05-26T17:55:48.399Z,23.39
2018-05-26T17:58:16.185Z,23.25
2018-05-26T18:00:46.644Z,23.14
2018-05-26T18:03:14.421Z,23.11
2018-05-26T18:05:42.138Z,22.94
2018-05-26T18:08:13.079Z,22.98
2018-05-26T18:10:40.673Z,22.91
2018-05-26T18:13:08.338Z,22.97
2018-05-26T18:15:35.957Z,23.07
2018-05-26T18:18:06.302Z,23.11
2018-05-26T18:20:33.978Z,23.08
2018-05-26T18:23:01.522Z,23.05
2018-05-26T18:25:29.747Z,23.06
2018-05-26T18:27:58.932Z,22.95
2018-05-26T18:30:31.676Z,22.94
2018-05-26T18:32:59.306Z,22.91
2018-05-26T18:35:26.938Z,22.79
2018-05-26T18:37:54.601Z,22.62
2018-05-26T18:40:22.263Z,22.47
2018-05-26T18:42:50.451Z,22.37
2018-05-26T18:45:18.067Z,22.29
2018-05-26T18:47:45.647Z,22.13
2018-05-26T18:50:13.326Z,21.96
2018-05-26T18:52:40.906Z,21.81
2018-05-26T18:55:08.549Z,21.66
2018-05-26T18:57:36.133Z,21.45
2018-05-26T19:00:03.824Z,21.51
2018-05-26T19:02:31.442Z,21.30
2018-05-26T19:04:59.061Z,21.36
2018-05-26T19:07:26.689Z,21.17
2018-05-26T19:09:54.270Z,21.20
2018-05-26T19:12:21.986Z,20.93
2018-05-26T19:14:49.566Z,20.90
2018-05-26T19:17:17.178Z,20.66
2018-05-26T19:19:44.869Z,20.41
2018-05-26T19:22:12.485Z,20.24
2018-05-26T19:24:40.061Z,20.24
2018-05-26T19:27:07.637Z,20.22
2018-05-26T19:29:35.253Z,20.00
2018-05-26T19:32:02.871Z,19.82
2018-05-26T19:34:30.457Z,19.64
2018-05-26T19:36:58.065Z,19.52
2018-05-26T19:39:25.664Z,19.38
2018-05-26T19:41:53.250Z,19.29
2018-05-26T19:44:20.886Z,19.23
2018-05-26T19:46:48.474Z,19.09
2018-05-26T19:49:16.828Z,19.07
2018-05-26T19:51:44.414Z,19.01
2018-05-26T19:54:11.994Z,18.93
2018-05-26T19:56:40.477Z,18.86
2018-05-26T19:59:08.052Z,18.77
2018-05-26T20:01:35.631Z,18.70
2018-05-26T20:04:03.208Z,18.73
2018-05-26T20:06:30.878Z,18.70
2018-05-26T20:08:58.490Z,18.65
2018-05-26T20:11:26.238Z,18.55
2018-05-26T20:13:53.818Z,18.46
2018-05-26T20:16:21.485Z,18.42
2018-05-26T20:18:49.143Z,18.36
2018-05-26T20:21:16.740Z,18.31
2018-05-26T20:23:44.317Z,18.18
2018-05-26T20:26:12.146Z,18.11
2018-05-26T20:28:39.763Z,18.07
2018-05-26T20:31:07.381Z,18.05
2018-05-26T20:33:35.074Z,18.06
2018-05-26T20:36:02.665Z,18.05
2018-05-26T20:38:30.289Z,18.02
2018-05-26T20:40:57.882Z,17.99
2018-05-26T20:43:25.468Z,18.09
2018-05-26T20:45:53.074Z,18.04
2018-05-26T20:48:20.737Z,18.26
2018-05-26T20:50:48.406Z,18.22
2018-05-26T20:53:16.052Z,18.34
2018-05-26T20:55:43.728Z,18.54
2018-05-26T20:58:11.350Z,18.45
2018-05-26T21:00:38.962Z,18.49
2018-05-26T21:03:06.549Z,18.54
2018-05-26T21:05:34.178Z,18.46
2018-05-26T21:08:01.770Z,18.62
2018-05-26T21:10:29.363Z,18.62
2018-05-26T21:12:56.974Z,18.56
2018-05-26T21:15:24.671Z,18.75
2018-05-26T21:17:52.385Z,18.87
2018-05-26T21:20:20.820Z,18.91
2018-05-26T21:22:48.450Z,18.83
2018-05-26T21:25:16.069Z,18.86
2018-05-26T21:27:43.695Z,18.83
2018-05-26T21:30:11.301Z,18.92
2018-05-26T21:32:38.981Z,18.95
2018-05-26T21:35:06.621Z,18.88
2018-05-26T21:37:34.202Z,18.86
2018-05-26T21:40:01.789Z,18.73
2018-05-26T21:42:29.378Z,18.78
2018-05-26T21:44:57.145Z,18.62
2018-05-26T21:47:24.729Z,18.61
2018-05-26T21:49:52.341Z,18.56
2018-05-26T21:52:19.965Z,18.58
2018-05-26T21:54:48.473Z,18.51
2018-05-26T21:57:16.110Z,18.67
2018-05-26T21:59:43.805Z,18.46
2018-05-26T22:02:11.474Z,18.38
2018-05-26T22:04:39.071Z,18.30
2018-05-26T22:07:06.754Z,18.24
2018-05-26T22:09:34.389Z,18.13
2018-05-26T22:12:02.019Z,18.17
2018-05-26T22:14:29.727Z,17.97
2018-05-26T22:16:57.322Z,17.91
2018-05-26T22:19:24.958Z,17.95
2018-05-26T22:21:52.594Z,17.69
2018-05-26T22:24:20.234Z,17.60
2018-05-26T22:26:47.845Z,17.44
2018-05-26T22:29:15.500Z,17.29
2018-05-26T22:31:43.064Z,17.22
2018-05-26T22:34:10.680Z,17.10
2018-05-26T22:36:38.380Z,17.15
2018-05-26T22:39:06.007Z,17.00
2018-05-26T22:41:33.637Z,16.95
2018-05-26T22:44:01.368Z,16.90
2018-05-26T22:46:28.998Z,16.85
2018-05-26T22:48:57.527Z,16.81
2018-05-26T22:51:25.110Z,16.73
2018-05-26T22:53:52.686Z,16.64
2018-05-26T22:56:20.271Z,16.58
2018-05-26T22:58:47.857Z,16.52
2018-05-26T23:01:15.442Z,16.42
2018-05-26T23:03:43.054Z,16.41
2018-05-26T23:06:10.678Z,16.43
2018-05-26T23:08:38.403Z,16.54
2018-05-26T23:11:06.035Z,16.61
2018-05-26T23:13:33.619Z,16.59
2018-05-26T23:16:01.207Z,16.65
2018-05-26T23:18:28.822Z,16.72
2018-05-26T23:20:56.486Z,16.77
2018-05-26T23:23:24.080Z,16.78
2018-05-26T23:25:51.756Z,16.82
2018-05-26T23:28:19.394Z,16.85
2018-05-26T23:30:47.030Z,16.88
2018-05-26T23:33:14.698Z,16.87
2018-05-26T23:35:42.361Z,16.93
2018-05-26T23:38:09.943Z,16.94
2018-05-26T23:40:37.559Z,17.01
2018-05-26T23:43:05.244Z,17.18
2018-05-26T23:45:32.866Z,17.02
2018-05-26T23:48:00.475Z,17.11
2018-05-26T23:50:28.067Z,16.94
2018-05-26T23:52:55.649Z,16.91
2018-05-26T23:55:23.233Z,16.81
2018-05-26T23:57:50.915Z,16.78
